Terminal Aerodrome Forecast
Issued by NWS Paducah, KY

Home | Current Version | Previous Version | Text Only | Print | Product List | Glossary On
Versions: 1 2 3 4 5 6 7 8 9 10 11 12 13 14 15 16 17
000
FTUS43 KPAH 011151
TAFPAH
TAF
KPAH 011151Z 0112/0212 09004KT P6SM OVC070
      TEMPO 0112/0116 6SM -RA BR SCT035 OVC070
     FM011600 27003KT 4SM -DZ BR OVC012
     FM011900 29004KT 3SM -DZ BR OVC009
     FM012300 35005KT P6SM OVC015
     FM020300 36006KT P6SM SCT150=

USA.gov is the U.S. government's official web portal to all federal, state and local government web resources and services.